Airport View

Enter AWOS ICAO identifier for current METAR.

ex. KFNL

KLTS 221856Z 04015KT 10SM BKN047 BKN190 31/16 A3014 RMK AO2A SLP191 T03120163 $

22 Jul 2019 19:04

Other Area AWOS: KAXS - KHBR - KFDR - KF05

TAF KLTS 221700Z 2217/2323 03015G20KT 9999 BKN025 QNH3008INS BECMG 2302/2303 06010KT 9999 SCT050 QNH3012INS BECMG 2312/2313 02010G20KT 9999 FEW060 510062 QNH3015INS BECMG 2320/2321 04010KT 9999 SKC QNH3012INS TX34/2223Z TN21/2312Z